Time;durP1;ratioP1;P1;durP2;ratioP2;P2;SDS_P1;SDS_P2;PMS_P1;PMS_P2;Temp;Humidity;BMP_temperature;BMP_pressure;BME280_temperature;BME280_humidity;BME280_pressure;Samples;Min_cycle;Max_cycle;Signal;HPM_P1;HPM_P2
2022/07/14 00:01:22;;;;;;;9.45;1.85;;;;;;;;;;5118890;28;20527;-78
2022/07/14 00:03:48;;;;;;;3.38;2.05;;;;;;;;;;5101607;28;20032;-78
2022/07/14 00:06:14;;;;;;;3.92;2.03;;;;;;;;;;5118344;27;20079;-78
2022/07/14 00:08:39;;;;;;;5.05;1.92;;;;;;;;;;5121693;27;20125;-78
2022/07/14 00:11:05;;;;;;;6.18;2.40;;;;;;;;;;5139706;27;20105;-78
2022/07/14 00:13:32;;;;;;;5.78;2.28;;;;;;;;;;5139476;27;20037;-78
2022/07/14 00:16:00;;;;;;;5.72;2.30;;;;;;;;;;5123361;27;20035;-78
2022/07/14 00:18:25;;;;;;;4.45;1.98;;;;;;;;;;5122814;27;20039;-78
2022/07/14 00:20:50;;;;;;;3.38;2.15;;;;;;;;;;5123173;27;20099;-78
2022/07/14 00:23:16;;;;;;;4.68;2.08;;;;;;;;;;5140571;27;20035;-78
2022/07/14 00:25:43;;;;;;;3.67;2.05;;;;;;;;;;5138720;27;20039;-78
2022/07/14 00:28:09;;;;;;;5.95;2.10;;;;;;;;;;5122706;27;20099;-78
2022/07/14 00:30:34;;;;;;;2.92;2.25;;;;;;;;;;5139233;27;20492;-78
2022/07/14 00:33:02;;;;;;;3.65;1.92;;;;;;;;;;5121679;28;20031;-78
2022/07/14 00:35:28;;;;;;;4.72;2.30;;;;;;;;;;5137017;28;20056;-78
2022/07/14 00:37:54;;;;;;;3.53;2.33;;;;;;;;;;5145851;27;20058;-78
2022/07/14 00:40:20;;;;;;;2.83;2.08;;;;;;;;;;5158534;27;20066;-78
2022/07/14 00:42:49;;;;;;;2.92;1.98;;;;;;;;;;5139379;27;20034;-78
2022/07/14 00:45:18;;;;;;;4.82;2.15;;;;;;;;;;5141489;27;20034;-78
2022/07/14 00:47:46;;;;;;;2.78;1.80;;;;;;;;;;5158815;27;20504;-78
2022/07/14 00:50:13;;;;;;;6.47;2.28;;;;;;;;;;5159878;27;20034;-78
2022/07/14 00:52:40;;;;;;;8.98;2.35;;;;;;;;;;5157845;27;20037;-78
2022/07/14 00:55:07;;;;;;;3.25;2.33;;;;;;;;;;5141449;27;20033;-78
2022/07/14 00:57:33;;;;;;;7.15;2.22;;;;;;;;;;5158264;27;20027;-78
2022/07/14 00:59:58;;;;;;;3.78;2.40;;;;;;;;;;5140520;27;20050;-78
2022/07/14 01:02:24;;;;;;;3.63;2.22;;;;;;;;;;5140129;27;20038;-78
2022/07/14 01:04:50;;;;;;;8.18;2.58;;;;;;;;;;5140608;27;20037;-78
2022/07/14 01:07:18;;;;;;;5.88;2.10;;;;;;;;;;5159529;27;20062;-78
2022/07/14 01:09:46;;;;;;;3.78;2.40;;;;;;;;;;5110341;28;20045;-78
2022/07/14 01:12:13;;;;;;;3.17;2.03;;;;;;;;;;5101240;28;20507;-78
2022/07/14 01:14:39;;;;;;;7.07;2.15;;;;;;;;;;5100155;28;20216;-78
2022/07/14 01:17:06;;;;;;;3.10;2.10;;;;;;;;;;5118943;28;20040;-78
2022/07/14 01:19:32;;;;;;;2.90;2.05;;;;;;;;;;5121240;28;20058;-78
2022/07/14 01:21:58;;;;;;;3.08;2.35;;;;;;;;;;5121814;28;20032;-78
2022/07/14 01:24:28;;;;;;;7.00;2.40;;;;;;;;;;5103559;28;20439;-78
2022/07/14 01:26:54;;;;;;;6.18;2.20;;;;;;;;;;5120918;28;20080;-78
2022/07/14 01:29:21;;;;;;;4.90;2.10;;;;;;;;;;5119554;28;20035;-78
2022/07/14 01:31:46;;;;;;;3.28;2.47;;;;;;;;;;5119605;28;20036;-78
2022/07/14 01:34:12;;;;;;;6.22;2.50;;;;;;;;;;5120446;28;20036;-78
2022/07/14 01:36:38;;;;;;;3.85;2.10;;;;;;;;;;5120882;28;20477;-77
2022/07/14 01:39:06;;;;;;;3.75;2.40;;;;;;;;;;5128897;27;20091;-77
2022/07/14 01:41:35;;;;;;;4.40;2.60;;;;;;;;;;5121752;27;20481;-77
2022/07/14 01:44:01;;;;;;;3.00;2.20;;;;;;;;;;5102518;28;20036;-77
2022/07/14 01:46:28;;;;;;;4.10;2.22;;;;;;;;;;5085151;28;20054;-77
2022/07/14 01:48:55;;;;;;;3.80;2.55;;;;;;;;;;5100981;28;20063;-78
2022/07/14 01:51:23;;;;;;;4.00;2.20;;;;;;;;;;5101031;28;20023;-78
2022/07/14 01:53:49;;;;;;;2.63;2.08;;;;;;;;;;5102738;28;20038;-78
2022/07/14 01:56:14;;;;;;;3.53;2.40;;;;;;;;;;5099821;28;20122;-78
2022/07/14 01:58:41;;;;;;;5.15;2.45;;;;;;;;;;5103028;28;20059;-78
2022/07/14 02:04:00;;;;;;;7.43;2.88;;;;;;;;;;5119448;28;20069;-77
2022/07/14 02:06:25;;;;;;;7.18;2.85;;;;;;;;;;5120491;28;20034;-78
2022/07/14 02:08:51;;;;;;;4.72;2.85;;;;;;;;;;5103074;28;20082;-78
2022/07/14 02:14:04;;;;;;;4.88;2.58;;;;;;;;;;5115865;28;20031;-77
2022/07/14 02:16:33;;;;;;;3.65;2.53;;;;;;;;;;5118095;28;20031;-77
2022/07/14 02:18:59;;;;;;;6.93;2.85;;;;;;;;;;5116888;27;20631;-77
2022/07/14 02:21:27;;;;;;;5.00;2.40;;;;;;;;;;5137007;27;20027;-77
2022/07/14 02:23:54;;;;;;;5.53;2.35;;;;;;;;;;5124842;27;20035;-78
2022/07/14 02:26:20;;;;;;;6.55;2.60;;;;;;;;;;5123353;27;20038;-78
2022/07/14 02:28:46;;;;;;;3.25;2.47;;;;;;;;;;5122847;27;20536;-78
2022/07/14 02:31:12;;;;;;;4.70;2.70;;;;;;;;;;5128472;27;20035;-77
2022/07/14 02:33:38;;;;;;;6.88;2.22;;;;;;;;;;5125630;27;20027;-83
2022/07/14 02:36:05;;;;;;;5.03;2.80;;;;;;;;;;5121177;27;20138;-81
2022/07/14 02:38:31;;;;;;;4.65;2.60;;;;;;;;;;5122633;27;20023;-80
2022/07/14 02:40:57;;;;;;;5.13;2.33;;;;;;;;;;5127219;27;20048;-80
2022/07/14 02:43:23;;;;;;;6.03;2.60;;;;;;;;;;5103295;28;20618;-81
2022/07/14 02:45:50;;;;;;;3.42;2.22;;;;;;;;;;5126251;28;20038;-81
2022/07/14 02:48:16;;;;;;;2.95;2.20;;;;;;;;;;5110797;28;20027;-81
2022/07/14 02:50:43;;;;;;;8.55;2.85;;;;;;;;;;5124792;27;20027;-80
2022/07/14 02:53:09;;;;;;;4.35;2.70;;;;;;;;;;5131943;27;20023;-81
2022/07/14 02:55:40;;;;;;;4.15;2.72;;;;;;;;;;5133986;27;20027;-81
2022/07/14 02:58:07;;;;;;;4.22;2.33;;;;;;;;;;5130935;27;20041;-83
2022/07/14 03:00:33;;;;;;;5.55;2.50;;;;;;;;;;5129472;27;20031;-81
2022/07/14 03:03:02;;;;;;;6.63;3.15;;;;;;;;;;5124005;27;20035;-84
2022/07/14 03:05:27;;;;;;;3.13;2.40;;;;;;;;;;5125527;27;20087;-84
2022/07/14 03:07:55;;;;;;;13.52;3.03;;;;;;;;;;5123735;27;20031;-85
2022/07/14 03:10:21;;;;;;;6.43;2.90;;;;;;;;;;5119253;27;20523;-77
2022/07/14 03:12:47;;;;;;;4.68;2.85;;;;;;;;;;5118354;27;20035;-77
2022/07/14 03:15:13;;;;;;;5.68;2.95;;;;;;;;;;5119004;27;20042;-77
2022/07/14 03:17:38;;;;;;;5.72;3.00;;;;;;;;;;5118703;27;20116;-77
2022/07/14 03:20:09;;;;;;;5.68;2.70;;;;;;;;;;5117166;28;20118;-81
2022/07/14 03:22:35;;;;;;;5.00;2.80;;;;;;;;;;5134671;27;20084;-77
2022/07/14 03:25:09;;;;;;;6.93;2.63;;;;;;;;;;5119742;27;20539;-78
2022/07/14 03:27:36;;;;;;;4.43;2.50;;;;;;;;;;5136530;27;20488;-78
2022/07/14 03:30:07;;;;;;;7.15;2.90;;;;;;;;;;5119526;27;20031;-78
2022/07/14 03:32:34;;;;;;;5.13;2.60;;;;;;;;;;5136251;27;20026;-78
2022/07/14 03:35:02;;;;;;;7.03;3.00;;;;;;;;;;5119045;27;20027;-78
2022/07/14 03:37:29;;;;;;;6.43;2.63;;;;;;;;;;5136145;27;20495;-78
2022/07/14 03:40:01;;;;;;;5.22;2.88;;;;;;;;;;5113619;28;20066;-78
2022/07/14 03:42:28;;;;;;;7.30;2.90;;;;;;;;;;5115392;28;20036;-78
2022/07/14 03:44:55;;;;;;;5.82;3.25;;;;;;;;;;5115418;28;20046;-78
2022/07/14 03:47:21;;;;;;;4.68;2.83;;;;;;;;;;5098449;28;20487;-78
2022/07/14 03:49:47;;;;;;;6.60;3.50;;;;;;;;;;5098780;28;20110;-78
2022/07/14 03:52:13;;;;;;;4.32;2.60;;;;;;;;;;5098723;28;20074;-78
2022/07/14 03:54:44;;;;;;;5.78;2.33;;;;;;;;;;5098577;28;20032;-78
2022/07/14 03:57:11;;;;;;;5.70;2.53;;;;;;;;;;5115067;28;20492;-78
2022/07/14 03:59:40;;;;;;;5.32;2.60;;;;;;;;;;5113777;28;20032;-78
2022/07/14 04:02:11;;;;;;;5.93;2.38;;;;;;;;;;5114904;28;20042;-78
2022/07/14 04:04:38;;;;;;;4.85;2.35;;;;;;;;;;5115101;28;20491;-78
2022/07/14 04:07:05;;;;;;;6.15;3.13;;;;;;;;;;5132685;27;20525;-77
2022/07/14 04:09:32;;;;;;;4.03;2.60;;;;;;;;;;5114918;28;20122;-78
2022/07/14 04:11:58;;;;;;;5.65;2.58;;;;;;;;;;5098049;28;20035;-78
2022/07/14 04:14:24;;;;;;;6.35;2.80;;;;;;;;;;5115126;28;20485;-78
2022/07/14 04:16:51;;;;;;;5.88;2.83;;;;;;;;;;5117488;27;20026;-77
2022/07/14 04:19:18;;;;;;;6.20;2.47;;;;;;;;;;5118319;27;20042;-77
2022/07/14 04:21:45;;;;;;;9.13;3.85;;;;;;;;;;5134953;27;20076;-78
2022/07/14 04:24:11;;;;;;;6.68;2.50;;;;;;;;;;5118470;28;20039;-78
2022/07/14 04:26:40;;;;;;;7.15;2.50;;;;;;;;;;5135448;27;20031;-78
2022/07/14 04:29:06;;;;;;;3.83;2.50;;;;;;;;;;5118281;28;20062;-78
2022/07/14 04:31:34;;;;;;;9.20;3.03;;;;;;;;;;5118628;28;20027;-78
2022/07/14 04:34:01;;;;;;;4.60;2.70;;;;;;;;;;5118687;28;20038;-78
2022/07/14 04:36:27;;;;;;;7.15;2.45;;;;;;;;;;5117554;28;20065;-78
2022/07/14 04:38:53;;;;;;;8.48;2.58;;;;;;;;;;5135098;28;20476;-78
2022/07/14 04:41:19;;;;;;;7.32;2.83;;;;;;;;;;5136221;27;20023;-77
2022/07/14 04:43:45;;;;;;;6.47;2.33;;;;;;;;;;5118304;28;20492;-78
2022/07/14 04:46:11;;;;;;;5.90;2.50;;;;;;;;;;5134857;28;20027;-78
2022/07/14 04:54:18;;;;;;;13.48;2.90;;;;;;;;;;5139424;27;20027;-78
2022/07/14 04:57:09;;;;;;;14.18;2.88;;;;;;;;;;5139277;27;20054;-78
2022/07/14 04:59:39;;;;;;;9.73;2.63;;;;;;;;;;5122996;27;20484;-78
2022/07/14 05:02:06;;;;;;;6.53;2.90;;;;;;;;;;5140209;27;20030;-77
2022/07/14 05:04:32;;;;;;;11.00;3.05;;;;;;;;;;5124830;27;20027;-82
2022/07/14 05:07:03;;;;;;;9.40;2.63;;;;;;;;;;5105936;28;20172;-82
2022/07/14 05:09:33;;;;;;;9.85;2.70;;;;;;;;;;5106127;28;20055;-81
2022/07/14 05:12:02;;;;;;;7.95;2.63;;;;;;;;;;5106037;28;20076;-84
2022/07/14 05:14:30;;;;;;;11.45;2.70;;;;;;;;;;5103559;28;20389;-85
2022/07/14 05:16:58;;;;;;;9.25;2.75;;;;;;;;;;5089460;28;20493;-88
2022/07/14 05:19:27;;;;;;;13.30;3.00;;;;;;;;;;5122093;28;20051;-84
2022/07/14 05:21:55;;;;;;;12.25;3.10;;;;;;;;;;5106200;28;20042;-85
2022/07/14 05:24:22;;;;;;;13.48;2.83;;;;;;;;;;5107599;28;20028;-86
2022/07/14 05:26:48;;;;;;;20.73;4.53;;;;;;;;;;5123479;28;20032;-84
2022/07/14 05:29:15;;;;;;;12.63;2.45;;;;;;;;;;5121687;28;20028;-83
2022/07/14 05:31:41;;;;;;;10.13;2.60;;;;;;;;;;5103714;28;20015;-82
2022/07/14 05:34:07;;;;;;;9.57;3.20;;;;;;;;;;5122114;27;20065;-81
2022/07/14 05:36:34;;;;;;;14.95;3.17;;;;;;;;;;5124288;27;20031;-81
2022/07/14 05:39:02;;;;;;;9.63;3.05;;;;;;;;;;5124348;27;20023;-84
2022/07/14 05:41:28;;;;;;;14.45;3.10;;;;;;;;;;5124093;27;20031;-84
2022/07/14 05:43:53;;;;;;;12.60;3.00;;;;;;;;;;5139405;27;20031;-85
2022/07/14 05:46:19;;;;;;;12.57;2.72;;;;;;;;;;5125912;27;20142;-85
2022/07/14 05:48:46;;;;;;;15.90;3.25;;;;;;;;;;5124232;27;20519;-82
2022/07/14 05:51:16;;;;;;;14.40;3.30;;;;;;;;;;5122423;27;20049;-83
2022/07/14 05:53:46;;;;;;;20.55;4.05;;;;;;;;;;5124639;27;20037;-83
2022/07/14 05:56:16;;;;;;;15.63;4.03;;;;;;;;;;5124746;27;20031;-85
2022/07/14 05:58:42;;;;;;;15.38;4.90;;;;;;;;;;5124561;27;20496;-84
2022/07/14 06:01:07;;;;;;;17.17;3.67;;;;;;;;;;5142764;27;20040;-83
2022/07/14 06:03:34;;;;;;;11.90;2.92;;;;;;;;;;5123097;27;20023;-81
2022/07/14 06:06:03;;;;;;;11.82;2.90;;;;;;;;;;5140276;27;20027;-81
2022/07/14 06:08:30;;;;;;;12.70;2.97;;;;;;;;;;5124114;27;20031;-83
2022/07/14 06:10:57;;;;;;;12.68;2.80;;;;;;;;;;5138737;27;20027;-85
2022/07/14 06:13:27;;;;;;;17.80;3.58;;;;;;;;;;5137275;27;20027;-85
2022/07/14 06:15:56;;;;;;;18.25;3.83;;;;;;;;;;5127239;27;20031;-84
2022/07/14 06:18:23;;;;;;;10.23;2.58;;;;;;;;;;5126970;27;20023;-84
2022/07/14 06:20:49;;;;;;;16.05;3.22;;;;;;;;;;5126997;27;20113;-83
2022/07/14 06:23:16;;;;;;;13.25;3.28;;;;;;;;;;5127956;27;20062;-84
2022/07/14 06:25:43;;;;;;;15.00;2.88;;;;;;;;;;5145179;27;20496;-85
2022/07/14 06:28:11;;;;;;;15.65;3.53;;;;;;;;;;5127331;27;20095;-85
2022/07/14 06:30:36;;;;;;;10.27;3.00;;;;;;;;;;5117730;28;20023;-83
2022/07/14 06:33:02;;;;;;;16.27;3.65;;;;;;;;;;5110094;28;20053;-80
2022/07/14 06:35:28;;;;;;;17.70;3.40;;;;;;;;;;5116030;27;20073;-79
2022/07/14 06:37:55;;;;;;;9.43;2.72;;;;;;;;;;5120780;27;20022;-80
2022/07/14 06:40:21;;;;;;;7.85;2.60;;;;;;;;;;5117077;28;20052;-79
2022/07/14 06:42:48;;;;;;;17.35;4.00;;;;;;;;;;5102870;27;20031;-80
2022/07/14 06:45:43;;;;;;;13.55;3.03;;;;;;;;;;5125220;27;20031;-83
2022/07/14 06:48:09;;;;;;;14.13;3.60;;;;;;;;;;5123306;27;20031;-84
2022/07/14 06:50:36;;;;;;;13.32;3.15;;;;;;;;;;5121721;27;20035;-88
2022/07/14 06:53:02;;;;;;;12.55;3.20;;;;;;;;;;5119799;27;20027;-90
2022/07/14 06:55:28;;;;;;;9.00;2.72;;;;;;;;;;5117808;27;20370;-87
2022/07/14 06:58:02;;;;;;;16.92;3.70;;;;;;;;;;5118071;27;20451;-88
2022/07/14 07:00:39;;;;;;;;;;;;;;;;;;5138598;27;20035;-81
2022/07/14 07:03:11;;;;;;;10.73;3.40;;;;;;;;;;5142561;27;19915;-79
2022/07/14 07:08:28;;;;;;;11.77;3.42;;;;;;;;;;5121801;27;20035;-80
2022/07/14 07:10:58;;;;;;;14.07;3.70;;;;;;;;;;5108777;28;20439;-80
2022/07/14 07:13:29;;;;;;;11.90;3.30;;;;;;;;;;5106023;28;20020;-80
2022/07/14 07:15:55;;;;;;;14.70;3.45;;;;;;;;;;5121019;28;20036;-81
2022/07/14 07:18:21;;;;;;;19.33;3.60;;;;;;;;;;5105756;28;20088;-80
2022/07/14 07:20:47;;;;;;;12.05;3.70;;;;;;;;;;5121728;28;20040;-82
2022/07/14 07:23:12;;;;;;;12.85;3.55;;;;;;;;;;5100603;28;20088;-82
2022/07/14 07:25:38;;;;;;;10.93;3.33;;;;;;;;;;5118062;28;20574;-83
2022/07/14 07:28:04;;;;;;;10.90;3.00;;;;;;;;;;5118225;28;20098;-82
2022/07/14 07:30:29;;;;;;;11.65;3.38;;;;;;;;;;5100939;28;20062;-82
2022/07/14 07:32:55;;;;;;;11.70;2.95;;;;;;;;;;5101865;28;20076;-82
2022/07/14 07:35:22;;;;;;;11.40;3.00;;;;;;;;;;5102887;28;20023;-83
2022/07/14 07:37:48;;;;;;;14.88;3.35;;;;;;;;;;5103064;27;20126;-81
2022/07/14 07:40:14;;;;;;;15.00;3.90;;;;;;;;;;5121530;27;20085;-81
2022/07/14 07:42:40;;;;;;;18.60;3.63;;;;;;;;;;5137532;27;20031;-79
2022/07/14 07:45:07;;;;;;;16.27;3.38;;;;;;;;;;5139475;27;20043;-80
2022/07/14 07:47:33;;;;;;;11.55;3.33;;;;;;;;;;5156900;27;20046;-79
2022/07/14 07:49:59;;;;;;;13.05;3.42;;;;;;;;;;5128803;27;20505;-82
2022/07/14 07:52:24;;;;;;;15.07;3.80;;;;;;;;;;5118308;27;20035;-82
2022/07/14 07:54:50;;;;;;;20.23;4.80;;;;;;;;;;5114238;27;20028;-84
2022/07/14 07:57:16;;;;;;;13.40;3.67;;;;;;;;;;5110031;27;20036;-84
2022/07/14 07:59:41;;;;;;;12.00;3.75;;;;;;;;;;5110618;28;20032;-82
2022/07/14 08:02:07;;;;;;;12.68;3.80;;;;;;;;;;5117451;28;20043;-82
2022/07/14 08:04:33;;;;;;;20.42;4.20;;;;;;;;;;5118397;27;20125;-83
2022/07/14 08:06:59;;;;;;;18.33;3.97;;;;;;;;;;5116991;28;20062;-83
2022/07/14 08:09:24;;;;;;;12.15;3.47;;;;;;;;;;5116240;28;20476;-80
2022/07/14 08:11:50;;;;;;;14.40;4.80;;;;;;;;;;5119767;27;20047;-82
2022/07/14 08:17:01;;;;;;;10.47;4.10;;;;;;;;;;5142272;27;20059;-82
2022/07/14 08:19:26;;;;;;;16.10;3.97;;;;;;;;;;5124859;27;20060;-82
2022/07/14 08:21:56;;;;;;;15.40;3.78;;;;;;;;;;5141140;27;20095;-82
2022/07/14 08:24:23;;;;;;;16.88;4.32;;;;;;;;;;5128941;27;20019;-82
2022/07/14 08:26:54;;;;;;;11.82;3.95;;;;;;;;;;5130039;27;20027;-82
2022/07/14 08:29:21;;;;;;;17.98;3.90;;;;;;;;;;5147647;27;20075;-82
2022/07/14 08:31:49;;;;;;;12.80;3.20;;;;;;;;;;5130404;28;20023;-82
2022/07/14 08:34:14;;;;;;;14.65;4.25;;;;;;;;;;5129225;27;20404;-82
2022/07/14 08:36:41;;;;;;;15.73;4.30;;;;;;;;;;5127990;28;20508;-82
2022/07/14 08:39:08;;;;;;;11.55;3.72;;;;;;;;;;5146377;27;20031;-81
2022/07/14 08:41:35;;;;;;;14.48;3.72;;;;;;;;;;5113365;28;20057;-82
2022/07/14 08:44:02;;;;;;;10.45;3.67;;;;;;;;;;5109783;28;20042;-82
2022/07/14 08:46:29;;;;;;;13.85;3.38;;;;;;;;;;5110300;28;20032;-82
2022/07/14 08:48:55;;;;;;;11.80;3.45;;;;;;;;;;5108638;28;20046;-82
2022/07/14 08:51:20;;;;;;;9.93;3.35;;;;;;;;;;5127010;28;20035;-82
2022/07/14 08:53:46;;;;;;;14.98;3.70;;;;;;;;;;5126782;28;20035;-82
2022/07/14 08:56:13;;;;;;;15.48;4.10;;;;;;;;;;5109549;28;20028;-82
2022/07/14 08:58:40;;;;;;;13.25;3.33;;;;;;;;;;5126689;28;20031;-82
2022/07/14 09:01:06;;;;;;;12.57;3.45;;;;;;;;;;5109566;28;20042;-82
2022/07/14 09:03:32;;;;;;;10.27;2.78;;;;;;;;;;5126752;28;20036;-82
2022/07/14 09:05:58;;;;;;;10.07;3.20;;;;;;;;;;5141786;27;20044;-82
2022/07/14 09:08:24;;;;;;;9.60;2.72;;;;;;;;;;5148321;27;20501;-82
2022/07/14 09:10:51;;;;;;;9.32;3.78;;;;;;;;;;5128904;28;20092;-82
2022/07/14 09:13:20;;;;;;;12.68;3.20;;;;;;;;;;5129820;28;20037;-82
2022/07/14 09:15:47;;;;;;;9.90;2.97;;;;;;;;;;5128959;28;20035;-82
2022/07/14 09:18:25;;;;;;;11.60;2.88;;;;;;;;;;5128428;28;20067;-82
2022/07/14 09:20:53;;;;;;;7.60;2.72;;;;;;;;;;5145773;28;20035;-82
2022/07/14 09:23:29;;;;;;;18.15;4.18;;;;;;;;;;5128748;28;20056;-82
2022/07/14 09:26:11;;;;;;;11.63;2.80;;;;;;;;;;5127851;28;20107;-82
2022/07/14 09:28:42;;;;;;;12.70;3.70;;;;;;;;;;5128602;28;20065;-82
2022/07/14 09:31:29;;;;;;;5.70;2.97;;;;;;;;;;5127320;28;20065;-82
2022/07/14 09:33:57;;;;;;;10.13;3.05;;;;;;;;;;5144430;28;20039;-82
2022/07/14 09:36:29;;;;;;;12.20;2.95;;;;;;;;;;5109001;28;20042;-82
2022/07/14 09:39:08;;;;;;;11.32;3.13;;;;;;;;;;5107805;28;20027;-83
2022/07/14 09:41:47;;;;;;;14.27;3.30;;;;;;;;;;5125981;27;20039;-82
2022/07/14 09:44:18;;;;;;;23.90;3.47;;;;;;;;;;5130871;27;20039;-82
2022/07/14 09:46:57;;;;;;;10.35;2.58;;;;;;;;;;5130380;27;20075;-82
2022/07/14 09:49:25;;;;;;;9.85;2.63;;;;;;;;;;5126709;27;20077;-82
2022/07/14 09:51:52;;;;;;;12.25;2.60;;;;;;;;;;5142139;27;20038;-82
2022/07/14 09:54:36;;;;;;;13.23;3.30;;;;;;;;;;5123049;27;20469;-77
2022/07/14 09:57:05;;;;;;;9.15;2.83;;;;;;;;;;5139192;27;20027;-82
2022/07/14 09:59:41;;;;;;;11.13;3.20;;;;;;;;;;5123029;27;20031;-82
2022/07/14 10:02:10;;;;;;;18.73;3.45;;;;;;;;;;5138816;27;20118;-85
2022/07/14 10:04:36;;;;;;;10.90;3.20;;;;;;;;;;5117991;27;20201;-80
2022/07/14 10:07:01;;;;;;;6.80;2.75;;;;;;;;;;5119324;27;20046;-80
2022/07/14 10:09:29;;;;;;;11.43;3.25;;;;;;;;;;5119072;27;20541;-85
2022/07/14 10:11:54;;;;;;;10.20;3.00;;;;;;;;;;5120713;27;20027;-83
2022/07/14 10:14:21;;;;;;;5.53;2.53;;;;;;;;;;5120202;27;20083;-87
2022/07/14 10:16:47;;;;;;;7.40;2.58;;;;;;;;;;5122282;27;20031;-81
2022/07/14 10:19:12;;;;;;;11.80;3.22;;;;;;;;;;5122260;27;20038;-83
2022/07/14 10:21:38;;;;;;;7.35;2.40;;;;;;;;;;5138912;27;20031;-83
2022/07/14 10:24:05;;;;;;;12.65;3.15;;;;;;;;;;5122621;27;20035;-84
2022/07/14 10:26:31;;;;;;;9.88;2.58;;;;;;;;;;5120943;27;20027;-83
2022/07/14 10:28:57;;;;;;;12.95;3.17;;;;;;;;;;5137915;27;20035;-82
2022/07/14 10:31:22;;;;;;;10.65;4.03;;;;;;;;;;5120073;27;20149;-88
2022/07/14 10:33:58;;;;;;;10.85;2.58;;;;;;;;;;5118686;27;20027;-89
2022/07/14 10:36:37;;;;;;;8.20;2.85;;;;;;;;;;5135941;27;20059;-84
2022/07/14 10:39:13;;;;;;;7.65;3.10;;;;;;;;;;5135976;27;20035;-84
2022/07/14 10:41:49;;;;;;;6.80;2.63;;;;;;;;;;5137295;27;20405;-84
2022/07/14 10:44:23;;;;;;;8.48;2.95;;;;;;;;;;5118028;27;20046;-85
2022/07/14 10:47:04;;;;;;;8.27;2.70;;;;;;;;;;5135218;27;20384;-85
2022/07/14 10:49:30;;;;;;;8.88;3.00;;;;;;;;;;5121454;27;20035;-80
2022/07/14 10:51:55;;;;;;;9.27;2.58;;;;;;;;;;5145089;27;20031;-80
2022/07/14 10:54:28;;;;;;;7.80;2.30;;;;;;;;;;5145543;27;20472;-80
2022/07/14 10:57:10;;;;;;;9.75;2.65;;;;;;;;;;5128087;27;20039;-80
2022/07/14 10:59:36;;;;;;;6.22;2.60;;;;;;;;;;5145481;27;20035;-80
2022/07/14 11:02:11;;;;;;;6.13;2.47;;;;;;;;;;5129195;27;20122;-80
2022/07/14 11:04:59;;;;;;;8.85;2.20;;;;;;;;;;5140881;27;20030;-80
2022/07/14 11:07:52;;;;;;;4.20;2.03;;;;;;;;;;5149564;27;20031;-80
2022/07/14 11:10:18;;;;;;;11.80;2.60;;;;;;;;;;5147575;27;20035;-80
2022/07/14 11:13:00;;;;;;;10.45;3.00;;;;;;;;;;5144309;27;20019;-79
2022/07/14 11:15:40;;;;;;;6.82;2.45;;;;;;;;;;5131299;27;20031;-79
2022/07/14 11:18:37;;;;;;;8.85;2.83;;;;;;;;;;5143746;27;20042;-79
2022/07/14 11:21:19;;;;;;;6.88;2.55;;;;;;;;;;5129512;27;20042;-80
2022/07/14 11:23:50;;;;;;;7.80;2.30;;;;;;;;;;5123787;28;20031;-80
2022/07/14 11:26:32;;;;;;;7.30;2.60;;;;;;;;;;5106229;28;20038;-80
2022/07/14 11:28:58;;;;;;;11.20;2.50;;;;;;;;;;5106080;28;20031;-80
2022/07/14 11:31:24;;;;;;;4.78;2.25;;;;;;;;;;5105181;28;20038;-80
2022/07/14 11:37:00;;;;;;;9.15;2.50;;;;;;;;;;5142577;27;20099;-80
2022/07/14 11:39:31;;;;;;;7.00;2.10;;;;;;;;;;5141861;27;20035;-80
2022/07/14 11:42:14;;;;;;;7.32;2.10;;;;;;;;;;5125305;27;20469;-80
2022/07/14 11:44:39;;;;;;;5.60;2.05;;;;;;;;;;5124303;27;20068;-79
2022/07/14 11:47:15;;;;;;;5.63;1.90;;;;;;;;;;5141376;27;20038;-80
2022/07/14 11:49:42;;;;;;;9.80;2.40;;;;;;;;;;5140594;27;20035;-80
2022/07/14 11:52:08;;;;;;;5.03;2.20;;;;;;;;;;5141297;27;20059;-80
2022/07/14 11:54:33;;;;;;;4.22;1.85;;;;;;;;;;5141112;27;20087;-80
2022/07/14 11:57:08;;;;;;;6.32;2.50;;;;;;;;;;5122167;27;20049;-79
2022/07/14 11:59:36;;;;;;;4.82;1.80;;;;;;;;;;5123426;27;20063;-80
2022/07/14 12:02:21;;;;;;;5.43;2.03;;;;;;;;;;5122533;27;20499;-79
2022/07/14 12:04:49;;;;;;;7.50;3.03;;;;;;;;;;5121949;27;20035;-81
2022/07/14 12:07:15;;;;;;;9.38;2.85;;;;;;;;;;5121835;27;20039;-79
2022/07/14 12:09:42;;;;;;;6.07;2.25;;;;;;;;;;5119524;28;20038;-80
2022/07/14 12:12:08;;;;;;;9.73;2.22;;;;;;;;;;5119807;28;20023;-79
2022/07/14 12:14:43;;;;;;;7.35;2.08;;;;;;;;;;5137354;27;20160;-80
2022/07/14 12:17:08;;;;;;;4.32;1.90;;;;;;;;;;5119412;27;20120;-81
2022/07/14 12:19:33;;;;;;;5.93;2.00;;;;;;;;;;5118956;27;20055;-80
2022/07/14 12:22:05;;;;;;;6.25;1.83;;;;;;;;;;5117871;28;20079;-80
2022/07/14 12:24:31;;;;;;;6.55;2.20;;;;;;;;;;5099026;28;20036;-80
2022/07/14 12:27:06;;;;;;;4.82;1.90;;;;;;;;;;5101383;28;20080;-81
2022/07/14 12:29:32;;;;;;;;;;;;;;;;;;5101714;28;20040;-81
2022/07/14 12:31:59;;;;;;;5.40;1.98;;;;;;;;;;5116957;28;19911;-81
2022/07/14 12:34:26;;;;;;;10.68;2.35;;;;;;;;;;5139154;27;20079;-79
2022/07/14 12:36:55;;;;;;;6.70;1.92;;;;;;;;;;5155551;27;20053;-79
2022/07/14 12:39:20;;;;;;;4.72;2.08;;;;;;;;;;5138290;27;20488;-79
2022/07/14 12:41:46;;;;;;;11.00;2.33;;;;;;;;;;5156638;27;20034;-79
2022/07/14 12:44:12;;;;;;;5.18;1.80;;;;;;;;;;5138581;27;20027;-79
2022/07/14 12:46:38;;;;;;;10.40;2.20;;;;;;;;;;5154756;27;20041;-79
2022/07/14 12:49:06;;;;;;;4.88;2.05;;;;;;;;;;5138593;27;20133;-79
2022/07/14 12:51:43;;;;;;;9.98;2.10;;;;;;;;;;5155738;27;20117;-79
2022/07/14 12:54:16;;;;;;;6.85;1.92;;;;;;;;;;5138815;27;20034;-79
2022/07/14 12:56:52;;;;;;;5.80;1.80;;;;;;;;;;5156515;27;20526;-79
2022/07/14 12:59:30;;;;;;;9.88;2.47;;;;;;;;;;5156420;27;20042;-79
2022/07/14 13:01:59;;;;;;;9.20;1.80;;;;;;;;;;5157895;27;20045;-79
2022/07/14 13:04:37;;;;;;;3.58;1.40;;;;;;;;;;5125157;27;20493;-79
2022/07/14 13:07:18;;;;;;;6.13;1.90;;;;;;;;;;5117679;28;20471;-79
2022/07/14 13:10:16;;;;;;;8.82;2.03;;;;;;;;;;5117225;28;20027;-79
2022/07/14 13:12:55;;;;;;;5.97;2.03;;;;;;;;;;5116123;28;20042;-79
2022/07/14 13:15:20;;;;;;;5.28;1.50;;;;;;;;;;5120621;28;20036;-79
2022/07/14 13:17:58;;;;;;;13.23;1.90;;;;;;;;;;5119721;28;20404;-79
2022/07/14 13:20:48;;;;;;;6.10;1.50;;;;;;;;;;5119779;28;20070;-79
2022/07/14 13:23:31;;;;;;;5.78;1.38;;;;;;;;;;5120366;28;20039;-79
2022/07/14 13:25:58;;;;;;;6.22;1.35;;;;;;;;;;5120599;28;20512;-79
2022/07/14 13:28:52;;;;;;;6.03;1.40;;;;;;;;;;5121401;28;20035;-79
2022/07/14 13:31:24;;;;;;;5.75;1.55;;;;;;;;;;5102209;28;20043;-79
2022/07/14 13:33:52;;;;;;;7.60;1.98;;;;;;;;;;5120646;28;20058;-79
2022/07/14 13:36:19;;;;;;;6.40;1.30;;;;;;;;;;5139730;27;20061;-79
2022/07/14 13:38:45;;;;;;;4.10;1.48;;;;;;;;;;5141413;27;20433;-79
2022/07/14 13:41:13;;;;;;;4.20;1.33;;;;;;;;;;5133954;27;20058;-79
2022/07/14 13:43:40;;;;;;;3.25;0.85;;;;;;;;;;5160838;27;20027;-79
2022/07/14 13:46:07;;;;;;;5.53;1.48;;;;;;;;;;5142866;27;20040;-79
2022/07/14 13:48:33;;;;;;;4.72;1.48;;;;;;;;;;5160587;27;20019;-79
2022/07/14 13:53:42;;;;;;;7.70;1.48;;;;;;;;;;5160505;27;20039;-79
2022/07/14 13:56:09;;;;;;;6.63;1.27;;;;;;;;;;5140668;27;20042;-79
2022/07/14 13:58:35;;;;;;;5.32;1.42;;;;;;;;;;5142444;27;20023;-79
2022/07/14 14:01:01;;;;;;;6.25;1.60;;;;;;;;;;5142734;27;20027;-79
2022/07/14 14:03:26;;;;;;;4.82;1.38;;;;;;;;;;5142356;27;20042;-80
2022/07/14 14:05:58;;;;;;;5.70;1.58;;;;;;;;;;5122926;27;20047;-79
2022/07/14 14:08:27;;;;;;;4.32;1.23;;;;;;;;;;5101607;28;20032;-79
2022/07/14 14:10:53;;;;;;;10.27;2.35;;;;;;;;;;5101194;28;20031;-79
2022/07/14 14:13:20;;;;;;;5.65;1.50;;;;;;;;;;5101485;28;20037;-79
2022/07/14 14:15:47;;;;;;;4.88;1.13;;;;;;;;;;5101611;28;20485;-79
2022/07/14 14:18:13;;;;;;;6.78;1.50;;;;;;;;;;5136452;27;20039;-83
2022/07/14 14:20:39;;;;;;;3.00;0.95;;;;;;;;;;5119056;28;20024;-82
2022/07/14 14:23:08;;;;;;;3.33;0.93;;;;;;;;;;5103973;28;20043;-82
2022/07/14 14:25:34;;;;;;;13.07;1.75;;;;;;;;;;5136206;27;20043;-82
2022/07/14 14:28:00;;;;;;;7.78;1.40;;;;;;;;;;5137302;27;20165;-82
2022/07/14 14:30:26;;;;;;;7.90;1.88;;;;;;;;;;5119625;28;20102;-82
2022/07/14 14:32:52;;;;;;;8.23;1.50;;;;;;;;;;5120881;28;20024;-82
2022/07/14 14:35:17;;;;;;;16.30;1.42;;;;;;;;;;5102837;28;20131;-81
2022/07/14 14:37:43;;;;;;;6.13;1.40;;;;;;;;;;5102314;28;20106;-81
2022/07/14 14:40:09;;;;;;;5.53;1.33;;;;;;;;;;5105391;27;20088;-81
2022/07/14 14:42:35;;;;;;;5.85;1.50;;;;;;;;;;5122169;27;20031;-82
2022/07/14 14:45:00;;;;;;;6.32;1.65;;;;;;;;;;5140424;27;20091;-82
2022/07/14 14:47:27;;;;;;;4.25;1.30;;;;;;;;;;5122884;27;20042;-82
2022/07/14 14:49:53;;;;;;;6.30;1.50;;;;;;;;;;5122839;27;20035;-82
2022/07/14 14:52:25;;;;;;;6.53;2.00;;;;;;;;;;5139372;27;20023;-81
2022/07/14 14:54:50;;;;;;;4.70;1.33;;;;;;;;;;5122890;27;20545;-82
2022/07/14 14:57:16;;;;;;;5.10;1.35;;;;;;;;;;5122126;27;20476;-82
2022/07/14 14:59:43;;;;;;;6.28;1.35;;;;;;;;;;5139488;27;20369;-82
2022/07/14 15:02:08;;;;;;;4.97;1.40;;;;;;;;;;5122484;27;20027;-81
2022/07/14 15:04:34;;;;;;;5.35;1.42;;;;;;;;;;5123032;27;20064;-82
2022/07/14 15:07:02;;;;;;;6.78;1.70;;;;;;;;;;5139316;27;20038;-82
2022/07/14 15:09:28;;;;;;;5.45;1.40;;;;;;;;;;5122149;27;20098;-82